New Harbor, ME

43° 52' 34"N, 69° 29' 40"W, Elevation 65 ft.
Eastern Time

Hourly observations for the last 72 hours

Date Time Temperature (°F) Humi-
dity

(%)
Wind
(mph)
Pressure Rain (in) Sun
(W/m2)
ET
(in)
Air Dew 6 Hour 1 Hr 3 Hr 6 Hr Day
Alt
(in)
Sea
Level

(mb)
Max Min
2 08:00 28.0 20.8 74 Calm 30.46 1031.4 0.00 56 0.006
2 07:00 27.6 20.1 31.7 27.5 73 Calm 30.42 1030.3 0.00 9 0.006
2 06:00 27.8 20.0 72 Calm 30.40 1029.6 0.00 0 0.005
2 05:00 30.2 19.5 64 Calm 30.39 1029.0 0.00 0 0.004
2 04:00 31.2 18.9 60 NW 0 G 7 30.35 1027.9 0.00 0 0.003
2 03:00 31.1 19.2 61 Calm 30.34 1027.4 0.00 0 0.002
2 02:00 31.3 19.0 60 Calm 30.29 1025.8 0.00 0 0.001
2 01:00 30.6 19.5 34.4 30.6 63 Calm 30.26 1024.9 0.00 0 0.000
2 00:00 31.7 19.4 60 SW 0 G 10 30.25 1024.2 0.01 0 0.036
1 23:00 31.9 19.2 59 S 0 G 1 30.22 1023.5 0.01 0 0.035
1 22:00 32.7 19.1 57 WSW 0 G 6 30.19 1022.6 0.01 0 0.034
1 21:00 33.7 19.2 55 W 5 G 18 30.18 1021.9 0.01 0 0.033
1 20:00 34.2 20.1 56 NW 1 G 12 30.16 1021.2 0.01 0 0.032
1 19:00 34.4 22.7 38.6 34.4 62 SSW 0 G 1 30.13 1020.3 0.01 0 0.031
1 18:00 34.8 23.1 62 W 2 G 13 30.10 1019.2 0.01 0 0.030
1 17:00 34.9 22.4 60 Calm 30.05 1017.6 0.01 0 0.029
1 16:00 36.2 22.4 57 W 8 G 20 30.00 1016.1 0.01 0 0.027
1 15:00 36.9 23.5 58 NW 6 G 14 29.96 1014.7 0.01 39 0.025
1 14:00 38.1 22.0 52 WNW 1 G 10 29.91 1012.7 0.01 37 0.023
1 13:00 38.6 21.6 42.6 32.4 50 WNW 8 G 15 29.88 1011.9 0.01 77 0.019
1 12:00 41.1 21.9 46 WSW 8 G 18 29.86 1011.1 0.01 410 0.013
1 11:00 40.7 24.0 51 SW 8 G 20 29.85 1010.8 0.01 448 0.006
1 10:00 37.5 24.5 59 WSW 10 G 18 29.84 1010.5 0.01 33 0.004
1 09:00 35.7 24.7 64 WSW 5 G 18 29.82 1009.7 0.01 28 0.003
1 08:00 32.9 24.5 71 W 5 G 12 29.80 1009.0 0.01 19 0.002
1 07:00 32.4 26.0 45.4 32.4 77 W 2 G 10 29.77 1008.1 0.01 5 0.002
1 06:00 34.1 27.0 75 W 2 G 5 29.74 1007.2 0.01 0 0.001
1 05:00 35.1 28.6 77 WNW 4 G 11 29.71 1006.1 0.01 0 0.000
1 04:00 35.7 33.3 91 WNW 7 G 17 29.67 1004.7 0.01 0 0.000
1 03:00 37.2 34.8 91 WNW 7 G 17 29.63 1003.5 0.01 0 0.000
1 02:00 40.0 37.9 92 WNW 1 G 10 29.60 1002.3 0.01 0 0.000
1 01:00 45.4 43.8 53.8 45.4 94 Calm 29.53 1000.0 0.01 0.10 0.68 0.01 0 0.000
1 00:00 47.1 45.5 94 SW 2 G 4 29.51 999.3 0.06 1.08 0 0.009
30 23:00 48.4 46.8 94 N 0 G 4 29.50 998.9 0.03 1.02 0 0.009
30 22:00 49.7 47.8 93 WSW 0 G 1 29.46 997.6 0.11 0.58 0.99 0 0.009
30 21:00 53.6 51.9 94 SSE 2 G 29 29.45 997.3 0.34 0.88 0 0.009
30 20:00 53.4 51.7 94 SSE 13 G 28 29.53 999.9 0.13 0.54 0 0.009
30 19:00 52.6 50.9 52.6 47.8 94 SSE 6 G 27 29.58 1001.8 0.06 0.25 0.29 0.41 0 0.009
30 18:00 51.2 49.2 93 SE 6 G 24 29.67 1004.7 0.11 0.35 0 0.009
30 17:00 50.8 48.9 93 SSE 1 G 23 29.75 1007.4 0.08 0.24 0 0.009
30 16:00 50.4 47.9 91 SSE 0 G 27 29.81 1009.4 0.04 0.04 0.16 0 0.009
30 15:00 49.7 47.2 91 SE 4 G 22 29.83 1010.2 0.12 12 0.008
30 14:00 48.7 46.8 93 SSE 11 G 23 29.88 1011.8 0.12 33 0.007
30 13:00 47.9 46.0 47.9 43.5 93 SE 2 G 18 29.97 1014.8 0.02 0.12 0.12 0.12 40 0.006
30 12:00 46.8 44.9 93 ESE 0 G 17 30.04 1017.4 0.02 0.10 21 0.005
30 11:00 46.8 44.6 92 SSE 7 G 21 30.11 1019.5 0.08 0.08 26 0.004
30 10:00 46.5 43.7 90 SSE 5 G 17 30.15 1020.9 0.00 33 0.003
30 09:00 45.4 41.5 86 SE 2 G 15 30.17 1021.8 0.00 26 0.003
30 08:00 44.7 39.9 83 SE 3 G 18 30.20 1022.8 0.00 21 0.003
30 07:00 43.5 38.1 43.5 37.5 81 SE 2 G 11 30.21 1023.2 0.00 0 0.003
30 06:00 42.4 36.7 80 ESE 0 G 9 30.22 1023.5 0.00 0 0.003
30 05:00 41.7 35.7 79 SE 0 G 1 30.25 1024.4 0.00 0 0.002
30 04:00 40.5 34.2 78 SSE 0 G 8 30.27 1025.0 0.00 0 0.002
30 03:00 39.6 33.0 77 Calm 30.31 1026.3 0.00 0 0.001
30 02:00 38.7 31.5 75 Calm 30.32 1026.6 0.00 0 0.000
30 01:00 37.5 30.6 37.5 29.0 76 ESE 0 G 3 30.31 1026.4 0.00 0 0.000
30 00:00 35.3 30.1 81 Calm 30.32 1026.8 0.00 0 0.018
29 23:00 32.1 29.5 90 Calm 30.34 1027.4 0.00 0 0.018
29 22:00 30.4 27.5 89 Calm 30.34 1027.6 0.00 0 0.018
29 21:00 29.8 26.7 88 Calm 30.33 1027.3 0.00 0 0.018
29 20:00 29.1 25.7 87 Calm 30.33 1027.2 0.00 0 0.018
29 19:00 29.7 25.5 37.8 29.5 84 Calm 30.33 1027.3 0.00 0 0.018
29 18:00 29.7 25.2 83 Calm 30.33 1027.1 0.00 0 0.018
29 17:00 30.9 24.5 77 Calm 30.31 1026.4 0.00 0 0.018
29 16:00 34.4 26.6 73 Calm 30.30 1026.0 0.00 5 0.018
29 15:00 35.5 27.7 73 Calm 30.27 1025.3 0.00 60 0.017
29 14:00 36.9 27.7 69 S 0 G 3 30.28 1025.3 0.00 60 0.015
29 13:00 36.9 27.3 39.8 25.7 68 SE 0 G 6 30.27 1025.3 0.00 134 0.011
29 12:00 38.7 28.0 65 Calm 30.28 1025.4 0.00 432 0.006
29 11:00 33.8 26.1 73 Calm 30.28 1025.6 0.00 313 0.001
29 10:00 32.2 24.2 72 Calm 30.28 1025.5 0.00 56 0.000
29 09:00 30.7 23.4 74 Calm 30.25 1024.5 0.00 26 0.000

Data generated by WxSolution Version 1.9.1.8, Build 2020.02.16.